sensor_id;sensor_type;location;lat;lon;timestamp;P1;durP1;ratioP1;P2;durP2;ratioP2
11807;SDS011;5961;42.640;23.380;2022-09-09T00:02:24;11.32;;;8.30;;
11807;SDS011;5961;42.640;23.380;2022-09-09T00:04:57;12.05;;;8.65;;
11807;SDS011;5961;42.640;23.380;2022-09-09T00:07:31;10.05;;;8.48;;
11807;SDS011;5961;42.640;23.380;2022-09-09T00:10:11;12.55;;;8.80;;
11807;SDS011;5961;42.640;23.380;2022-09-09T00:12:44;9.37;;;8.47;;
11807;SDS011;5961;42.640;23.380;2022-09-09T00:15:20;10.05;;;8.95;;
11807;SDS011;5961;42.640;23.380;2022-09-09T00:17:51;9.02;;;7.90;;
11807;SDS011;5961;42.640;23.380;2022-09-09T00:20:24;9.65;;;8.00;;
11807;SDS011;5961;42.640;23.380;2022-09-09T00:23:01;9.57;;;8.23;;
11807;SDS011;5961;42.640;23.380;2022-09-09T00:25:37;9.05;;;8.15;;
11807;SDS011;5961;42.640;23.380;2022-09-09T00:28:13;9.70;;;7.95;;
11807;SDS011;5961;42.640;23.380;2022-09-09T00:30:44;9.73;;;7.93;;
11807;SDS011;5961;42.640;23.380;2022-09-09T00:33:14;11.98;;;7.75;;
11807;SDS011;5961;42.640;23.380;2022-09-09T00:35:44;11.00;;;7.65;;
11807;SDS011;5961;42.640;23.380;2022-09-09T00:38:16;9.17;;;7.50;;
11807;SDS011;5961;42.640;23.380;2022-09-09T00:40:46;9.63;;;7.50;;
11807;SDS011;5961;42.640;23.380;2022-09-09T00:43:26;12.87;;;7.43;;
11807;SDS011;5961;42.640;23.380;2022-09-09T00:46:00;10.33;;;7.57;;
11807;SDS011;5961;42.640;23.380;2022-09-09T00:48:38;8.17;;;7.33;;
11807;SDS011;5961;42.640;23.380;2022-09-09T00:51:14;9.17;;;7.70;;
11807;SDS011;5961;42.640;23.380;2022-09-09T00:53:58;8.57;;;7.63;;
11807;SDS011;5961;42.640;23.380;2022-09-09T00:56:38;11.77;;;7.97;;
11807;SDS011;5961;42.640;23.380;2022-09-09T00:59:20;9.27;;;8.37;;
11807;SDS011;5961;42.640;23.380;2022-09-09T01:01:54;9.03;;;8.23;;
11807;SDS011;5961;42.640;23.380;2022-09-09T01:04:23;8.97;;;8.07;;
11807;SDS011;5961;42.640;23.380;2022-09-09T01:06:57;8.70;;;7.80;;
11807;SDS011;5961;42.640;23.380;2022-09-09T01:09:37;9.40;;;7.73;;
11807;SDS011;5961;42.640;23.380;2022-09-09T01:12:14;10.30;;;7.77;;
11807;SDS011;5961;42.640;23.380;2022-09-09T01:14:43;9.50;;;7.70;;
11807;SDS011;5961;42.640;23.380;2022-09-09T01:17:14;10.07;;;7.33;;
11807;SDS011;5961;42.640;23.380;2022-09-09T01:19:53;8.97;;;8.00;;
11807;SDS011;5961;42.640;23.380;2022-09-09T01:22:29;9.13;;;7.97;;
11807;SDS011;5961;42.640;23.380;2022-09-09T01:27:59;11.17;;;7.50;;
11807;SDS011;5961;42.640;23.380;2022-09-09T01:30:29;8.27;;;7.40;;
11807;SDS011;5961;42.640;23.380;2022-09-09T01:32:58;11.50;;;7.60;;
11807;SDS011;5961;42.640;23.380;2022-09-09T01:35:32;8.60;;;7.73;;
11807;SDS011;5961;42.640;23.380;2022-09-09T01:38:06;10.63;;;8.17;;
11807;SDS011;5961;42.640;23.380;2022-09-09T01:40:33;8.27;;;7.40;;
11807;SDS011;5961;42.640;23.380;2022-09-09T01:43:01;9.53;;;7.50;;
11807;SDS011;5961;42.640;23.380;2022-09-09T01:45:29;8.27;;;7.47;;
11807;SDS011;5961;42.640;23.380;2022-09-09T01:47:56;9.30;;;7.87;;
11807;SDS011;5961;42.640;23.380;2022-09-09T01:50:24;9.03;;;7.97;;
11807;SDS011;5961;42.640;23.380;2022-09-09T01:52:52;9.13;;;7.87;;
11807;SDS011;5961;42.640;23.380;2022-09-09T01:55:26;8.03;;;7.30;;
11807;SDS011;5961;42.640;23.380;2022-09-09T01:57:57;11.07;;;7.70;;
11807;SDS011;5961;42.640;23.380;2022-09-09T02:00:37;9.60;;;7.00;;
11807;SDS011;5961;42.640;23.380;2022-09-09T02:03:12;11.43;;;7.50;;
11807;SDS011;5961;42.640;23.380;2022-09-09T02:05:48;9.30;;;7.47;;
11807;SDS011;5961;42.640;23.380;2022-09-09T02:08:25;8.80;;;7.90;;
11807;SDS011;5961;42.640;23.380;2022-09-09T02:11:01;9.57;;;8.00;;
11807;SDS011;5961;42.640;23.380;2022-09-09T02:13:34;8.43;;;7.50;;
11807;SDS011;5961;42.640;23.380;2022-09-09T02:16:04;9.43;;;8.33;;
11807;SDS011;5961;42.640;23.380;2022-09-09T02:18:35;10.33;;;8.10;;
11807;SDS011;5961;42.640;23.380;2022-09-09T02:21:04;10.07;;;8.97;;
11807;SDS011;5961;42.640;23.380;2022-09-09T02:23:32;10.17;;;7.60;;
11807;SDS011;5961;42.640;23.380;2022-09-09T02:26:01;8.00;;;7.20;;
11807;SDS011;5961;42.640;23.380;2022-09-09T02:28:30;9.30;;;7.50;;
11807;SDS011;5961;42.640;23.380;2022-09-09T02:31:00;8.50;;;7.70;;
11807;SDS011;5961;42.640;23.380;2022-09-09T02:33:28;8.57;;;7.77;;
11807;SDS011;5961;42.640;23.380;2022-09-09T02:36:00;8.97;;;8.07;;
11807;SDS011;5961;42.640;23.380;2022-09-09T02:38:32;9.90;;;7.70;;
11807;SDS011;5961;42.640;23.380;2022-09-09T02:41:03;9.30;;;8.07;;
11807;SDS011;5961;42.640;23.380;2022-09-09T02:43:31;10.87;;;8.13;;
11807;SDS011;5961;42.640;23.380;2022-09-09T02:46:02;11.43;;;8.30;;
11807;SDS011;5961;42.640;23.380;2022-09-09T02:48:36;8.93;;;7.90;;
11807;SDS011;5961;42.640;23.380;2022-09-09T02:51:16;12.20;;;7.60;;
11807;SDS011;5961;42.640;23.380;2022-09-09T02:53:51;13.30;;;8.20;;
11807;SDS011;5961;42.640;23.380;2022-09-09T02:56:25;9.07;;;8.00;;
11807;SDS011;5961;42.640;23.380;2022-09-09T02:58:54;9.83;;;7.97;;
11807;SDS011;5961;42.640;23.380;2022-09-09T03:01:23;9.43;;;8.43;;
11807;SDS011;5961;42.640;23.380;2022-09-09T03:03:50;12.97;;;8.60;;
11807;SDS011;5961;42.640;23.380;2022-09-09T03:06:16;12.80;;;9.60;;
11807;SDS011;5961;42.640;23.380;2022-09-09T03:08:43;11.60;;;9.83;;
11807;SDS011;5961;42.640;23.380;2022-09-09T03:11:10;13.57;;;9.87;;
11807;SDS011;5961;42.640;23.380;2022-09-09T03:13:37;12.40;;;9.77;;
11807;SDS011;5961;42.640;23.380;2022-09-09T03:16:04;13.20;;;10.40;;
11807;SDS011;5961;42.640;23.380;2022-09-09T03:18:32;11.77;;;10.57;;
11807;SDS011;5961;42.640;23.380;2022-09-09T03:20:59;12.97;;;10.37;;
11807;SDS011;5961;42.640;23.380;2022-09-09T03:23:26;14.37;;;10.83;;
11807;SDS011;5961;42.640;23.380;2022-09-09T03:25:53;14.13;;;10.57;;
11807;SDS011;5961;42.640;23.380;2022-09-09T03:28:22;13.63;;;11.00;;
11807;SDS011;5961;42.640;23.380;2022-09-09T03:30:57;12.53;;;10.27;;
11807;SDS011;5961;42.640;23.380;2022-09-09T03:33:24;12.57;;;10.30;;
11807;SDS011;5961;42.640;23.380;2022-09-09T03:35:53;12.10;;;10.20;;
11807;SDS011;5961;42.640;23.380;2022-09-09T03:38:21;13.97;;;9.93;;
11807;SDS011;5961;42.640;23.380;2022-09-09T03:40:49;16.60;;;10.70;;
11807;SDS011;5961;42.640;23.380;2022-09-09T03:43:17;12.47;;;10.23;;
11807;SDS011;5961;42.640;23.380;2022-09-09T03:45:45;13.03;;;11.00;;
11807;SDS011;5961;42.640;23.380;2022-09-09T03:48:12;14.37;;;12.33;;
11807;SDS011;5961;42.640;23.380;2022-09-09T03:50:39;18.47;;;10.77;;
11807;SDS011;5961;42.640;23.380;2022-09-09T03:53:11;13.17;;;11.30;;
11807;SDS011;5961;42.640;23.380;2022-09-09T03:55:38;12.10;;;10.80;;
11807;SDS011;5961;42.640;23.380;2022-09-09T03:58:06;12.23;;;10.73;;
11807;SDS011;5961;42.640;23.380;2022-09-09T04:00:33;16.37;;;11.23;;
11807;SDS011;5961;42.640;23.380;2022-09-09T04:03:00;13.97;;;11.10;;
11807;SDS011;5961;42.640;23.380;2022-09-09T04:05:27;13.87;;;11.60;;
11807;SDS011;5961;42.640;23.380;2022-09-09T04:07:55;15.53;;;11.67;;
11807;SDS011;5961;42.640;23.380;2022-09-09T04:10:23;18.63;;;11.73;;
11807;SDS011;5961;42.640;23.380;2022-09-09T04:12:49;13.97;;;12.20;;
11807;SDS011;5961;42.640;23.380;2022-09-09T04:15:17;15.70;;;11.40;;
11807;SDS011;5961;42.640;23.380;2022-09-09T04:17:44;15.97;;;11.57;;
11807;SDS011;5961;42.640;23.380;2022-09-09T04:20:11;13.77;;;11.67;;
11807;SDS011;5961;42.640;23.380;2022-09-09T04:22:37;15.27;;;12.80;;
11807;SDS011;5961;42.640;23.380;2022-09-09T04:25:05;20.93;;;12.20;;
11807;SDS011;5961;42.640;23.380;2022-09-09T04:27:33;15.80;;;11.17;;
11807;SDS011;5961;42.640;23.380;2022-09-09T04:30:00;19.97;;;11.37;;
11807;SDS011;5961;42.640;23.380;2022-09-09T04:32:27;13.90;;;11.00;;
11807;SDS011;5961;42.640;23.380;2022-09-09T04:34:54;14.87;;;10.73;;
11807;SDS011;5961;42.640;23.380;2022-09-09T04:37:21;11.63;;;10.10;;
11807;SDS011;5961;42.640;23.380;2022-09-09T04:39:48;10.97;;;9.50;;
11807;SDS011;5961;42.640;23.380;2022-09-09T04:42:14;11.43;;;8.40;;
11807;SDS011;5961;42.640;23.380;2022-09-09T04:44:42;13.53;;;8.97;;
11807;SDS011;5961;42.640;23.380;2022-09-09T04:47:09;12.33;;;9.43;;
11807;SDS011;5961;42.640;23.380;2022-09-09T04:49:37;10.27;;;8.17;;
11807;SDS011;5961;42.640;23.380;2022-09-09T04:52:04;13.00;;;8.07;;
11807;SDS011;5961;42.640;23.380;2022-09-09T04:54:31;17.13;;;8.57;;
11807;SDS011;5961;42.640;23.380;2022-09-09T04:56:57;12.50;;;8.50;;
11807;SDS011;5961;42.640;23.380;2022-09-09T04:59:24;10.50;;;7.80;;
11807;SDS011;5961;42.640;23.380;2022-09-09T05:01:52;11.00;;;8.93;;
11807;SDS011;5961;42.640;23.380;2022-09-09T05:04:20;9.93;;;8.87;;
11807;SDS011;5961;42.640;23.380;2022-09-09T05:06:46;13.43;;;9.30;;
11807;SDS011;5961;42.640;23.380;2022-09-09T05:09:13;10.07;;;8.17;;
11807;SDS011;5961;42.640;23.380;2022-09-09T05:11:40;9.67;;;8.67;;
11807;SDS011;5961;42.640;23.380;2022-09-09T05:14:07;13.30;;;8.13;;
11807;SDS011;5961;42.640;23.380;2022-09-09T05:16:34;8.93;;;8.07;;
11807;SDS011;5961;42.640;23.380;2022-09-09T05:19:02;9.10;;;8.20;;
11807;SDS011;5961;42.640;23.380;2022-09-09T05:21:29;10.13;;;8.03;;
11807;SDS011;5961;42.640;23.380;2022-09-09T05:23:56;13.63;;;8.10;;
11807;SDS011;5961;42.640;23.380;2022-09-09T05:26:23;8.80;;;7.70;;
11807;SDS011;5961;42.640;23.380;2022-09-09T05:28:50;10.30;;;8.17;;
11807;SDS011;5961;42.640;23.380;2022-09-09T05:31:17;11.67;;;7.77;;
11807;SDS011;5961;42.640;23.380;2022-09-09T05:33:44;13.20;;;8.00;;
11807;SDS011;5961;42.640;23.380;2022-09-09T05:36:15;11.53;;;8.20;;
11807;SDS011;5961;42.640;23.380;2022-09-09T05:38:43;8.50;;;7.70;;
11807;SDS011;5961;42.640;23.380;2022-09-09T05:41:10;13.50;;;8.27;;
11807;SDS011;5961;42.640;23.380;2022-09-09T05:43:37;13.40;;;8.50;;
11807;SDS011;5961;42.640;23.380;2022-09-09T05:46:06;9.20;;;8.30;;
11807;SDS011;5961;42.640;23.380;2022-09-09T05:48:34;9.97;;;7.53;;
11807;SDS011;5961;42.640;23.380;2022-09-09T05:51:03;7.87;;;6.70;;
11807;SDS011;5961;42.640;23.380;2022-09-09T05:53:33;10.97;;;7.17;;
11807;SDS011;5961;42.640;23.380;2022-09-09T05:56:00;10.87;;;7.07;;
11807;SDS011;5961;42.640;23.380;2022-09-09T05:58:29;11.27;;;7.07;;
11807;SDS011;5961;42.640;23.380;2022-09-09T06:01:02;7.30;;;6.33;;
11807;SDS011;5961;42.640;23.380;2022-09-09T06:03:30;7.30;;;6.60;;
11807;SDS011;5961;42.640;23.380;2022-09-09T06:05:58;9.40;;;7.20;;
11807;SDS011;5961;42.640;23.380;2022-09-09T06:08:26;7.57;;;6.40;;
11807;SDS011;5961;42.640;23.380;2022-09-09T06:11:00;9.07;;;6.97;;
11807;SDS011;5961;42.640;23.380;2022-09-09T06:13:28;8.95;;;6.80;;
11807;SDS011;5961;42.640;23.380;2022-09-09T06:15:55;10.85;;;7.25;;
11807;SDS011;5961;42.640;23.380;2022-09-09T06:18:23;8.30;;;6.65;;
11807;SDS011;5961;42.640;23.380;2022-09-09T06:20:55;9.77;;;6.78;;
11807;SDS011;5961;42.640;23.380;2022-09-09T06:23:23;11.07;;;6.35;;
11807;SDS011;5961;42.640;23.380;2022-09-09T06:25:50;8.05;;;6.60;;
11807;SDS011;5961;42.640;23.380;2022-09-09T06:28:18;9.15;;;6.47;;
11807;SDS011;5961;42.640;23.380;2022-09-09T06:30:45;12.07;;;6.43;;
11807;SDS011;5961;42.640;23.380;2022-09-09T06:33:12;10.07;;;6.90;;
11807;SDS011;5961;42.640;23.380;2022-09-09T06:35:39;7.75;;;6.90;;
11807;SDS011;5961;42.640;23.380;2022-09-09T06:38:05;14.98;;;8.40;;
11807;SDS011;5961;42.640;23.380;2022-09-09T06:40:33;11.48;;;9.43;;
11807;SDS011;5961;42.640;23.380;2022-09-09T06:43:00;11.27;;;7.95;;
11807;SDS011;5961;42.640;23.380;2022-09-09T06:45:32;8.95;;;7.40;;
11807;SDS011;5961;42.640;23.380;2022-09-09T06:48:01;10.77;;;9.70;;
11807;SDS011;5961;42.640;23.380;2022-09-09T06:50:28;15.13;;;11.02;;
11807;SDS011;5961;42.640;23.380;2022-09-09T06:52:55;15.82;;;11.02;;
11807;SDS011;5961;42.640;23.380;2022-09-09T06:55:24;13.80;;;11.38;;
11807;SDS011;5961;42.640;23.380;2022-09-09T06:57:52;10.23;;;9.00;;
11807;SDS011;5961;42.640;23.380;2022-09-09T07:00:19;10.95;;;8.25;;
11807;SDS011;5961;42.640;23.380;2022-09-09T07:02:47;19.33;;;8.70;;
11807;SDS011;5961;42.640;23.380;2022-09-09T07:05:16;15.68;;;8.85;;
11807;SDS011;5961;42.640;23.380;2022-09-09T07:07:42;9.93;;;7.82;;
11807;SDS011;5961;42.640;23.380;2022-09-09T07:10:09;13.95;;;9.68;;
11807;SDS011;5961;42.640;23.380;2022-09-09T07:12:36;15.13;;;10.23;;
11807;SDS011;5961;42.640;23.380;2022-09-09T07:15:03;20.40;;;14.65;;
11807;SDS011;5961;42.640;23.380;2022-09-09T07:17:31;14.85;;;11.50;;
11807;SDS011;5961;42.640;23.380;2022-09-09T07:19:59;13.05;;;10.52;;
11807;SDS011;5961;42.640;23.380;2022-09-09T07:22:27;11.82;;;8.60;;
11807;SDS011;5961;42.640;23.380;2022-09-09T07:24:54;11.98;;;8.43;;
11807;SDS011;5961;42.640;23.380;2022-09-09T07:27:21;15.75;;;8.45;;
11807;SDS011;5961;42.640;23.380;2022-09-09T07:29:47;11.10;;;8.32;;
11807;SDS011;5961;42.640;23.380;2022-09-09T07:32:14;14.38;;;9.73;;
11807;SDS011;5961;42.640;23.380;2022-09-09T07:34:41;12.98;;;8.23;;
11807;SDS011;5961;42.640;23.380;2022-09-09T07:37:09;14.13;;;8.93;;
11807;SDS011;5961;42.640;23.380;2022-09-09T07:39:38;10.88;;;8.32;;
11807;SDS011;5961;42.640;23.380;2022-09-09T07:42:05;14.88;;;8.68;;
11807;SDS011;5961;42.640;23.380;2022-09-09T07:44:32;13.63;;;9.80;;
11807;SDS011;5961;42.640;23.380;2022-09-09T07:47:00;9.15;;;7.78;;
11807;SDS011;5961;42.640;23.380;2022-09-09T07:49:27;13.02;;;7.90;;
11807;SDS011;5961;42.640;23.380;2022-09-09T07:51:54;10.73;;;6.93;;
11807;SDS011;5961;42.640;23.380;2022-09-09T07:54:22;11.20;;;7.55;;
11807;SDS011;5961;42.640;23.380;2022-09-09T07:56:49;11.73;;;7.20;;
11807;SDS011;5961;42.640;23.380;2022-09-09T07:59:16;11.68;;;7.13;;
11807;SDS011;5961;42.640;23.380;2022-09-09T08:01:44;14.13;;;7.25;;
11807;SDS011;5961;42.640;23.380;2022-09-09T08:04:13;11.40;;;8.93;;
11807;SDS011;5961;42.640;23.380;2022-09-09T08:06:42;10.30;;;6.72;;
11807;SDS011;5961;42.640;23.380;2022-09-09T08:09:11;10.65;;;6.93;;
11807;SDS011;5961;42.640;23.380;2022-09-09T08:11:40;10.75;;;7.20;;
11807;SDS011;5961;42.640;23.380;2022-09-09T08:14:09;12.32;;;8.20;;
11807;SDS011;5961;42.640;23.380;2022-09-09T08:16:38;12.15;;;8.30;;
11807;SDS011;5961;42.640;23.380;2022-09-09T08:19:06;9.50;;;7.60;;
11807;SDS011;5961;42.640;23.380;2022-09-09T08:21:33;10.27;;;7.30;;
11807;SDS011;5961;42.640;23.380;2022-09-09T08:24:01;10.88;;;7.32;;
11807;SDS011;5961;42.640;23.380;2022-09-09T08:26:30;10.75;;;7.00;;
11807;SDS011;5961;42.640;23.380;2022-09-09T08:29:01;9.88;;;7.28;;
11807;SDS011;5961;42.640;23.380;2022-09-09T08:31:30;11.43;;;7.85;;
11807;SDS011;5961;42.640;23.380;2022-09-09T08:33:58;12.15;;;6.95;;
11807;SDS011;5961;42.640;23.380;2022-09-09T08:36:27;8.50;;;6.40;;
11807;SDS011;5961;42.640;23.380;2022-09-09T08:38:55;10.10;;;6.97;;
11807;SDS011;5961;42.640;23.380;2022-09-09T08:44:11;11.77;;;6.57;;
11807;SDS011;5961;42.640;23.380;2022-09-09T08:46:46;12.73;;;6.40;;
11807;SDS011;5961;42.640;23.380;2022-09-09T08:49:29;10.50;;;6.70;;
11807;SDS011;5961;42.640;23.380;2022-09-09T08:52:15;11.48;;;6.20;;
11807;SDS011;5961;42.640;23.380;2022-09-09T08:54:45;11.95;;;6.35;;
11807;SDS011;5961;42.640;23.380;2022-09-09T08:57:14;9.75;;;6.28;;
11807;SDS011;5961;42.640;23.380;2022-09-09T08:59:47;12.70;;;6.10;;
11807;SDS011;5961;42.640;23.380;2022-09-09T09:02:17;8.70;;;6.07;;
11807;SDS011;5961;42.640;23.380;2022-09-09T09:04:57;9.43;;;5.80;;
11807;SDS011;5961;42.640;23.380;2022-09-09T09:07:37;10.77;;;5.75;;
11807;SDS011;5961;42.640;23.380;2022-09-09T09:10:12;7.43;;;6.28;;
11807;SDS011;5961;42.640;23.380;2022-09-09T09:12:45;9.55;;;6.07;;
11807;SDS011;5961;42.640;23.380;2022-09-09T09:15:16;7.28;;;6.00;;
11807;SDS011;5961;42.640;23.380;2022-09-09T09:17:47;13.90;;;5.97;;
11807;SDS011;5961;42.640;23.380;2022-09-09T09:20:15;13.07;;;6.80;;
11807;SDS011;5961;42.640;23.380;2022-09-09T09:22:46;13.20;;;6.47;;
11807;SDS011;5961;42.640;23.380;2022-09-09T09:25:16;9.25;;;6.93;;
11807;SDS011;5961;42.640;23.380;2022-09-09T09:27:47;11.05;;;6.70;;
11807;SDS011;5961;42.640;23.380;2022-09-09T09:30:22;18.15;;;6.68;;
11807;SDS011;5961;42.640;23.380;2022-09-09T09:32:51;7.80;;;5.90;;
11807;SDS011;5961;42.640;23.380;2022-09-09T09:35:21;10.25;;;6.38;;
11807;SDS011;5961;42.640;23.380;2022-09-09T09:37:48;8.80;;;5.93;;
11807;SDS011;5961;42.640;23.380;2022-09-09T09:40:16;9.95;;;6.30;;
11807;SDS011;5961;42.640;23.380;2022-09-09T09:42:48;10.60;;;7.07;;
11807;SDS011;5961;42.640;23.380;2022-09-09T09:45:17;11.25;;;7.85;;
11807;SDS011;5961;42.640;23.380;2022-09-09T09:48:00;9.93;;;6.63;;
11807;SDS011;5961;42.640;23.380;2022-09-09T09:50:29;9.07;;;7.15;;
11807;SDS011;5961;42.640;23.380;2022-09-09T09:52:57;10.13;;;6.68;;
11807;SDS011;5961;42.640;23.380;2022-09-09T09:55:26;9.75;;;6.95;;
11807;SDS011;5961;42.640;23.380;2022-09-09T09:58:00;12.85;;;6.57;;
11807;SDS011;5961;42.640;23.380;2022-09-09T10:00:30;12.15;;;6.25;;
11807;SDS011;5961;42.640;23.380;2022-09-09T10:02:59;12.10;;;6.95;;
11807;SDS011;5961;42.640;23.380;2022-09-09T10:05:28;13.27;;;6.60;;
11807;SDS011;5961;42.640;23.380;2022-09-09T10:08:03;12.40;;;6.72;;
11807;SDS011;5961;42.640;23.380;2022-09-09T10:10:37;9.48;;;6.30;;
11807;SDS011;5961;42.640;23.380;2022-09-09T10:13:14;9.23;;;6.25;;
11807;SDS011;5961;42.640;23.380;2022-09-09T10:15:52;11.88;;;6.60;;
11807;SDS011;5961;42.640;23.380;2022-09-09T10:18:36;13.63;;;6.78;;
11807;SDS011;5961;42.640;23.380;2022-09-09T10:21:14;10.32;;;6.35;;
11807;SDS011;5961;42.640;23.380;2022-09-09T10:24:15;7.85;;;6.55;;
11807;SDS011;5961;42.640;23.380;2022-09-09T10:26:53;9.02;;;6.57;;
11807;SDS011;5961;42.640;23.380;2022-09-09T10:29:31;7.18;;;6.47;;
11807;SDS011;5961;42.640;23.380;2022-09-09T10:32:19;9.35;;;6.82;;
11807;SDS011;5961;42.640;23.380;2022-09-09T10:35:03;7.50;;;6.63;;
11807;SDS011;5961;42.640;23.380;2022-09-09T10:37:40;12.93;;;6.60;;
11807;SDS011;5961;42.640;23.380;2022-09-09T10:40:17;13.20;;;7.25;;
11807;SDS011;5961;42.640;23.380;2022-09-09T10:42:51;8.07;;;6.05;;
11807;SDS011;5961;42.640;23.380;2022-09-09T10:45:25;11.00;;;7.00;;
11807;SDS011;5961;42.640;23.380;2022-09-09T10:48:07;11.82;;;7.70;;
11807;SDS011;5961;42.640;23.380;2022-09-09T10:50:49;9.30;;;6.78;;
11807;SDS011;5961;42.640;23.380;2022-09-09T10:53:22;12.27;;;6.82;;
11807;SDS011;5961;42.640;23.380;2022-09-09T10:56:01;11.25;;;6.72;;
11807;SDS011;5961;42.640;23.380;2022-09-09T10:58:35;8.43;;;6.40;;
11807;SDS011;5961;42.640;23.380;2022-09-09T11:01:10;7.57;;;6.22;;
11807;SDS011;5961;42.640;23.380;2022-09-09T11:03:43;11.05;;;6.40;;
11807;SDS011;5961;42.640;23.380;2022-09-09T11:06:16;11.25;;;6.53;;
11807;SDS011;5961;42.640;23.380;2022-09-09T11:08:45;12.25;;;6.75;;
11807;SDS011;5961;42.640;23.380;2022-09-09T11:11:15;7.57;;;6.47;;
11807;SDS011;5961;42.640;23.380;2022-09-09T11:13:47;7.80;;;6.45;;
11807;SDS011;5961;42.640;23.380;2022-09-09T11:16:22;10.18;;;6.40;;
11807;SDS011;5961;42.640;23.380;2022-09-09T11:18:57;7.30;;;6.32;;
11807;SDS011;5961;42.640;23.380;2022-09-09T11:21:29;14.82;;;7.35;;
11807;SDS011;5961;42.640;23.380;2022-09-09T11:24:01;8.57;;;6.25;;
11807;SDS011;5961;42.640;23.380;2022-09-09T11:26:36;12.18;;;7.35;;
11807;SDS011;5961;42.640;23.380;2022-09-09T11:29:13;10.80;;;7.13;;
11807;SDS011;5961;42.640;23.380;2022-09-09T11:32:03;12.15;;;6.88;;
11807;SDS011;5961;42.640;23.380;2022-09-09T11:34:50;11.93;;;7.10;;
11807;SDS011;5961;42.640;23.380;2022-09-09T11:37:36;10.48;;;6.88;;
11807;SDS011;5961;42.640;23.380;2022-09-09T11:40:32;10.13;;;7.28;;
11807;SDS011;5961;42.640;23.380;2022-09-09T11:43:01;11.63;;;8.07;;
11807;SDS011;5961;42.640;23.380;2022-09-09T11:45:31;11.93;;;7.28;;
11807;SDS011;5961;42.640;23.380;2022-09-09T11:48:01;10.68;;;7.28;;
11807;SDS011;5961;42.640;23.380;2022-09-09T11:50:35;10.00;;;7.63;;
11807;SDS011;5961;42.640;23.380;2022-09-09T11:53:04;11.93;;;7.43;;
11807;SDS011;5961;42.640;23.380;2022-09-09T11:55:48;8.52;;;7.05;;
11807;SDS011;5961;42.640;23.380;2022-09-09T11:58:27;9.80;;;7.90;;
11807;SDS011;5961;42.640;23.380;2022-09-09T12:00:58;10.88;;;7.50;;
11807;SDS011;5961;42.640;23.380;2022-09-09T12:03:31;14.38;;;7.35;;
11807;SDS011;5961;42.640;23.380;2022-09-09T12:06:10;12.82;;;7.60;;
11807;SDS011;5961;42.640;23.380;2022-09-09T12:08:41;11.48;;;7.95;;
11807;SDS011;5961;42.640;23.380;2022-09-09T12:11:10;13.35;;;7.47;;
11807;SDS011;5961;42.640;23.380;2022-09-09T12:13:37;11.00;;;7.45;;
11807;SDS011;5961;42.640;23.380;2022-09-09T12:16:26;11.98;;;7.57;;
11807;SDS011;5961;42.640;23.380;2022-09-09T12:19:02;12.18;;;7.72;;
11807;SDS011;5961;42.640;23.380;2022-09-09T12:21:33;11.20;;;7.97;;
11807;SDS011;5961;42.640;23.380;2022-09-09T12:24:06;11.35;;;7.68;;
11807;SDS011;5961;42.640;23.380;2022-09-09T12:26:36;10.80;;;7.85;;
11807;SDS011;5961;42.640;23.380;2022-09-09T12:29:12;11.00;;;7.30;;
11807;SDS011;5961;42.640;23.380;2022-09-09T12:31:51;8.60;;;7.45;;
11807;SDS011;5961;42.640;23.380;2022-09-09T12:34:28;10.50;;;7.25;;
11807;SDS011;5961;42.640;23.380;2022-09-09T12:37:04;12.23;;;7.80;;
11807;SDS011;5961;42.640;23.380;2022-09-09T12:39:38;9.30;;;7.00;;
11807;SDS011;5961;42.640;23.380;2022-09-09T12:42:17;11.40;;;7.80;;
11807;SDS011;5961;42.640;23.380;2022-09-09T12:44:52;10.35;;;7.50;;
11807;SDS011;5961;42.640;23.380;2022-09-09T12:47:20;8.57;;;7.40;;
11807;SDS011;5961;42.640;23.380;2022-09-09T12:49:51;12.23;;;7.63;;
11807;SDS011;5961;42.640;23.380;2022-09-09T12:52:24;10.02;;;8.02;;
11807;SDS011;5961;42.640;23.380;2022-09-09T12:54:55;8.32;;;7.13;;
11807;SDS011;5961;42.640;23.380;2022-09-09T12:57:23;11.18;;;7.55;;
11807;SDS011;5961;42.640;23.380;2022-09-09T12:59:51;10.93;;;7.97;;
11807;SDS011;5961;42.640;23.380;2022-09-09T13:02:20;14.65;;;8.88;;
11807;SDS011;5961;42.640;23.380;2022-09-09T13:04:48;15.15;;;8.52;;
11807;SDS011;5961;42.640;23.380;2022-09-09T13:07:16;15.38;;;9.15;;
11807;SDS011;5961;42.640;23.380;2022-09-09T13:09:46;11.65;;;8.27;;
11807;SDS011;5961;42.640;23.380;2022-09-09T13:12:14;17.15;;;9.50;;
11807;SDS011;5961;42.640;23.380;2022-09-09T13:14:44;15.27;;;10.38;;
11807;SDS011;5961;42.640;23.380;2022-09-09T13:17:18;11.60;;;9.50;;
11807;SDS011;5961;42.640;23.380;2022-09-09T13:19:46;13.75;;;8.35;;
11807;SDS011;5961;42.640;23.380;2022-09-09T13:22:19;10.70;;;8.23;;
11807;SDS011;5961;42.640;23.380;2022-09-09T13:24:59;13.07;;;8.38;;
11807;SDS011;5961;42.640;23.380;2022-09-09T13:27:29;9.30;;;8.32;;
11807;SDS011;5961;42.640;23.380;2022-09-09T13:29:59;12.50;;;7.93;;
11807;SDS011;5961;42.640;23.380;2022-09-09T13:32:27;14.02;;;8.15;;
11807;SDS011;5961;42.640;23.380;2022-09-09T13:34:55;14.45;;;7.85;;
11807;SDS011;5961;42.640;23.380;2022-09-09T13:37:23;16.88;;;9.18;;
11807;SDS011;5961;42.640;23.380;2022-09-09T13:39:55;15.07;;;9.05;;
11807;SDS011;5961;42.640;23.380;2022-09-09T13:42:25;15.93;;;8.40;;
11807;SDS011;5961;42.640;23.380;2022-09-09T13:44:53;15.00;;;8.13;;
11807;SDS011;5961;42.640;23.380;2022-09-09T13:47:26;12.90;;;8.27;;
11807;SDS011;5961;42.640;23.380;2022-09-09T13:49:56;18.45;;;8.57;;
11807;SDS011;5961;42.640;23.380;2022-09-09T13:52:23;11.27;;;7.97;;
11807;SDS011;5961;42.640;23.380;2022-09-09T13:54:51;18.52;;;8.38;;
11807;SDS011;5961;42.640;23.380;2022-09-09T13:57:20;15.48;;;8.82;;
11807;SDS011;5961;42.640;23.380;2022-09-09T13:59:51;16.33;;;8.48;;
11807;SDS011;5961;42.640;23.380;2022-09-09T14:02:19;14.40;;;7.85;;
11807;SDS011;5961;42.640;23.380;2022-09-09T14:04:48;12.27;;;8.00;;
11807;SDS011;5961;42.640;23.380;2022-09-09T14:07:16;12.93;;;7.38;;
11807;SDS011;5961;42.640;23.380;2022-09-09T14:09:44;12.43;;;7.53;;
11807;SDS011;5961;42.640;23.380;2022-09-09T14:12:15;11.18;;;7.95;;
11807;SDS011;5961;42.640;23.380;2022-09-09T14:14:43;11.88;;;8.35;;
11807;SDS011;5961;42.640;23.380;2022-09-09T14:17:11;11.27;;;7.95;;
11807;SDS011;5961;42.640;23.380;2022-09-09T14:19:38;15.35;;;7.88;;
11807;SDS011;5961;42.640;23.380;2022-09-09T14:22:05;8.80;;;7.90;;
11807;SDS011;5961;42.640;23.380;2022-09-09T14:24:32;15.05;;;7.78;;
11807;SDS011;5961;42.640;23.380;2022-09-09T14:26:59;14.98;;;8.55;;
11807;SDS011;5961;42.640;23.380;2022-09-09T14:29:25;11.70;;;8.63;;
11807;SDS011;5961;42.640;23.380;2022-09-09T14:31:52;14.88;;;8.30;;
11807;SDS011;5961;42.640;23.380;2022-09-09T14:34:20;17.25;;;10.32;;
11807;SDS011;5961;42.640;23.380;2022-09-09T14:36:47;18.13;;;7.85;;
11807;SDS011;5961;42.640;23.380;2022-09-09T14:39:14;16.40;;;8.05;;
11807;SDS011;5961;42.640;23.380;2022-09-09T14:41:41;15.82;;;8.13;;
11807;SDS011;5961;42.640;23.380;2022-09-09T14:44:08;18.85;;;8.75;;
11807;SDS011;5961;42.640;23.380;2022-09-09T14:46:35;18.23;;;8.48;;
11807;SDS011;5961;42.640;23.380;2022-09-09T14:49:02;14.48;;;8.43;;
11807;SDS011;5961;42.640;23.380;2022-09-09T14:51:30;16.92;;;8.15;;
11807;SDS011;5961;42.640;23.380;2022-09-09T14:53:58;11.75;;;8.43;;
11807;SDS011;5961;42.640;23.380;2022-09-09T14:56:27;14.93;;;8.10;;
11807;SDS011;5961;42.640;23.380;2022-09-09T14:58:56;12.70;;;8.00;;
11807;SDS011;5961;42.640;23.380;2022-09-09T15:01:26;13.48;;;7.82;;
11807;SDS011;5961;42.640;23.380;2022-09-09T15:03:53;11.32;;;8.07;;